sensor_id;sensor_type;location;lat;lon;timestamp;P1;durP1;ratioP1;P2;durP2;ratioP2
10410;SDS011;5251;52.112;8.606;2023-03-01T00:01:27;10.70;;;7.45;;
10410;SDS011;5251;52.112;8.606;2023-03-01T00:03:55;10.73;;;6.85;;
10410;SDS011;5251;52.112;8.606;2023-03-01T00:06:21;8.75;;;7.07;;
10410;SDS011;5251;52.112;8.606;2023-03-01T00:08:47;8.38;;;6.28;;
10410;SDS011;5251;52.112;8.606;2023-03-01T00:11:20;9.27;;;6.45;;
10410;SDS011;5251;52.112;8.606;2023-03-01T00:13:48;8.00;;;6.25;;
10410;SDS011;5251;52.112;8.606;2023-03-01T00:16:17;8.93;;;6.20;;
10410;SDS011;5251;52.112;8.606;2023-03-01T00:18:47;8.07;;;6.63;;
10410;SDS011;5251;52.112;8.606;2023-03-01T00:21:13;8.88;;;6.43;;
10410;SDS011;5251;52.112;8.606;2023-03-01T00:23:39;7.60;;;6.45;;
10410;SDS011;5251;52.112;8.606;2023-03-01T00:26:06;8.45;;;6.55;;
10410;SDS011;5251;52.112;8.606;2023-03-01T00:28:34;8.38;;;6.30;;
10410;SDS011;5251;52.112;8.606;2023-03-01T00:31:06;9.60;;;7.05;;
10410;SDS011;5251;52.112;8.606;2023-03-01T00:33:33;10.23;;;7.00;;
10410;SDS011;5251;52.112;8.606;2023-03-01T00:35:59;11.50;;;7.68;;
10410;SDS011;5251;52.112;8.606;2023-03-01T00:38:26;8.07;;;6.68;;
10410;SDS011;5251;52.112;8.606;2023-03-01T00:40:51;8.45;;;6.10;;
10410;SDS011;5251;52.112;8.606;2023-03-01T00:43:17;8.75;;;6.28;;
10410;SDS011;5251;52.112;8.606;2023-03-01T00:45:44;7.72;;;6.43;;
10410;SDS011;5251;52.112;8.606;2023-03-01T00:48:09;8.27;;;6.70;;
10410;SDS011;5251;52.112;8.606;2023-03-01T00:50:35;9.75;;;6.80;;
10410;SDS011;5251;52.112;8.606;2023-03-01T00:53:01;9.88;;;7.05;;
10410;SDS011;5251;52.112;8.606;2023-03-01T00:55:27;12.07;;;7.00;;
10410;SDS011;5251;52.112;8.606;2023-03-01T00:57:52;8.68;;;7.45;;
10410;SDS011;5251;52.112;8.606;2023-03-01T01:00:18;8.23;;;6.72;;
10410;SDS011;5251;52.112;8.606;2023-03-01T01:02:44;7.60;;;6.57;;
10410;SDS011;5251;52.112;8.606;2023-03-01T01:05:11;7.90;;;6.75;;
10410;SDS011;5251;52.112;8.606;2023-03-01T01:07:37;9.15;;;6.30;;
10410;SDS011;5251;52.112;8.606;2023-03-01T01:10:03;7.97;;;5.88;;
10410;SDS011;5251;52.112;8.606;2023-03-01T01:12:29;7.45;;;6.05;;
10410;SDS011;5251;52.112;8.606;2023-03-01T01:14:55;6.88;;;5.55;;
10410;SDS011;5251;52.112;8.606;2023-03-01T01:17:20;9.35;;;6.22;;
10410;SDS011;5251;52.112;8.606;2023-03-01T01:19:46;6.35;;;5.60;;
10410;SDS011;5251;52.112;8.606;2023-03-01T01:22:11;7.80;;;6.10;;
10410;SDS011;5251;52.112;8.606;2023-03-01T01:24:37;8.13;;;6.40;;
10410;SDS011;5251;52.112;8.606;2023-03-01T01:27:02;10.38;;;6.47;;
10410;SDS011;5251;52.112;8.606;2023-03-01T01:29:28;9.55;;;7.68;;
10410;SDS011;5251;52.112;8.606;2023-03-01T01:31:53;10.70;;;7.25;;
10410;SDS011;5251;52.112;8.606;2023-03-01T01:34:20;12.70;;;7.63;;
10410;SDS011;5251;52.112;8.606;2023-03-01T01:36:53;9.68;;;7.53;;
10410;SDS011;5251;52.112;8.606;2023-03-01T01:39:19;11.50;;;7.35;;
10410;SDS011;5251;52.112;8.606;2023-03-01T01:41:45;11.32;;;7.68;;
10410;SDS011;5251;52.112;8.606;2023-03-01T01:44:13;9.38;;;7.35;;
10410;SDS011;5251;52.112;8.606;2023-03-01T01:46:45;10.00;;;7.68;;
10410;SDS011;5251;52.112;8.606;2023-03-01T01:52:20;9.43;;;7.43;;
10410;SDS011;5251;52.112;8.606;2023-03-01T01:54:51;9.75;;;7.50;;
10410;SDS011;5251;52.112;8.606;2023-03-01T01:57:32;9.48;;;7.20;;
10410;SDS011;5251;52.112;8.606;2023-03-01T02:00:04;9.40;;;7.43;;
10410;SDS011;5251;52.112;8.606;2023-03-01T02:02:33;8.55;;;6.93;;
10410;SDS011;5251;52.112;8.606;2023-03-01T02:05:01;10.82;;;7.50;;
10410;SDS011;5251;52.112;8.606;2023-03-01T02:07:35;9.57;;;7.50;;
10410;SDS011;5251;52.112;8.606;2023-03-01T02:10:04;10.48;;;7.55;;
10410;SDS011;5251;52.112;8.606;2023-03-01T02:12:30;9.50;;;7.57;;
10410;SDS011;5251;52.112;8.606;2023-03-01T02:14:56;11.13;;;7.90;;
10410;SDS011;5251;52.112;8.606;2023-03-01T02:17:22;10.80;;;7.90;;
10410;SDS011;5251;52.112;8.606;2023-03-01T02:22:32;8.88;;;6.90;;
10410;SDS011;5251;52.112;8.606;2023-03-01T02:25:03;8.30;;;7.22;;
10410;SDS011;5251;52.112;8.606;2023-03-01T02:27:52;9.95;;;7.60;;
10410;SDS011;5251;52.112;8.606;2023-03-01T02:30:35;11.68;;;7.43;;
10410;SDS011;5251;52.112;8.606;2023-03-01T02:33:02;10.50;;;8.00;;
10410;SDS011;5251;52.112;8.606;2023-03-01T02:35:30;13.32;;;9.15;;
10410;SDS011;5251;52.112;8.606;2023-03-01T02:37:59;12.45;;;9.48;;
10410;SDS011;5251;52.112;8.606;2023-03-01T02:40:27;10.63;;;8.35;;
10410;SDS011;5251;52.112;8.606;2023-03-01T02:42:56;10.93;;;8.00;;
10410;SDS011;5251;52.112;8.606;2023-03-01T02:45:23;9.68;;;7.93;;
10410;SDS011;5251;52.112;8.606;2023-03-01T02:47:50;11.27;;;8.13;;
10410;SDS011;5251;52.112;8.606;2023-03-01T02:55:26;10.07;;;8.15;;
10410;SDS011;5251;52.112;8.606;2023-03-01T02:57:52;11.25;;;8.45;;
10410;SDS011;5251;52.112;8.606;2023-03-01T03:00:24;9.57;;;8.25;;
10410;SDS011;5251;52.112;8.606;2023-03-01T03:02:55;11.90;;;8.77;;
10410;SDS011;5251;52.112;8.606;2023-03-01T03:05:26;12.40;;;8.77;;
10410;SDS011;5251;52.112;8.606;2023-03-01T03:07:53;11.05;;;9.45;;
10410;SDS011;5251;52.112;8.606;2023-03-01T03:10:22;10.13;;;8.95;;
10410;SDS011;5251;52.112;8.606;2023-03-01T03:12:53;11.73;;;9.25;;
10410;SDS011;5251;52.112;8.606;2023-03-01T03:15:24;12.02;;;9.15;;
10410;SDS011;5251;52.112;8.606;2023-03-01T03:17:51;12.00;;;8.70;;
10410;SDS011;5251;52.112;8.606;2023-03-01T03:20:18;11.75;;;9.05;;
10410;SDS011;5251;52.112;8.606;2023-03-01T03:22:47;10.80;;;8.85;;
10410;SDS011;5251;52.112;8.606;2023-03-01T03:25:14;11.77;;;9.38;;
10410;SDS011;5251;52.112;8.606;2023-03-01T03:27:41;11.75;;;8.88;;
10410;SDS011;5251;52.112;8.606;2023-03-01T03:30:09;11.02;;;8.30;;
10410;SDS011;5251;52.112;8.606;2023-03-01T03:32:38;11.30;;;8.68;;
10410;SDS011;5251;52.112;8.606;2023-03-01T03:35:04;11.05;;;8.60;;
10410;SDS011;5251;52.112;8.606;2023-03-01T03:37:37;11.57;;;8.40;;
10410;SDS011;5251;52.112;8.606;2023-03-01T03:40:23;11.63;;;8.60;;
10410;SDS011;5251;52.112;8.606;2023-03-01T03:42:50;11.70;;;8.30;;
10410;SDS011;5251;52.112;8.606;2023-03-01T03:45:16;11.43;;;8.63;;
10410;SDS011;5251;52.112;8.606;2023-03-01T03:47:42;12.40;;;9.73;;
10410;SDS011;5251;52.112;8.606;2023-03-01T03:50:13;11.48;;;8.75;;
10410;SDS011;5251;52.112;8.606;2023-03-01T03:52:40;13.00;;;8.80;;
10410;SDS011;5251;52.112;8.606;2023-03-01T03:55:06;11.57;;;8.80;;
10410;SDS011;5251;52.112;8.606;2023-03-01T03:57:38;13.65;;;9.27;;
10410;SDS011;5251;52.112;8.606;2023-03-01T04:00:05;12.70;;;9.15;;
10410;SDS011;5251;52.112;8.606;2023-03-01T04:02:38;11.48;;;9.38;;
10410;SDS011;5251;52.112;8.606;2023-03-01T04:05:08;12.25;;;9.07;;
10410;SDS011;5251;52.112;8.606;2023-03-01T04:07:35;11.23;;;8.93;;
10410;SDS011;5251;52.112;8.606;2023-03-01T04:10:05;10.93;;;9.00;;
10410;SDS011;5251;52.112;8.606;2023-03-01T04:12:33;12.40;;;9.27;;
10410;SDS011;5251;52.112;8.606;2023-03-01T04:15:00;11.23;;;8.98;;
10410;SDS011;5251;52.112;8.606;2023-03-01T04:17:26;12.52;;;9.48;;
10410;SDS011;5251;52.112;8.606;2023-03-01T04:19:51;13.65;;;9.57;;
10410;SDS011;5251;52.112;8.606;2023-03-01T04:22:18;12.35;;;9.10;;
10410;SDS011;5251;52.112;8.606;2023-03-01T04:24:44;12.77;;;9.15;;
10410;SDS011;5251;52.112;8.606;2023-03-01T04:27:10;13.82;;;9.10;;
10410;SDS011;5251;52.112;8.606;2023-03-01T04:29:36;12.20;;;9.40;;
10410;SDS011;5251;52.112;8.606;2023-03-01T04:32:01;13.07;;;8.90;;
10410;SDS011;5251;52.112;8.606;2023-03-01T04:34:28;11.32;;;9.50;;
10410;SDS011;5251;52.112;8.606;2023-03-01T04:36:54;11.88;;;9.55;;
10410;SDS011;5251;52.112;8.606;2023-03-01T04:39:20;14.13;;;10.27;;
10410;SDS011;5251;52.112;8.606;2023-03-01T04:41:46;11.43;;;8.57;;
10410;SDS011;5251;52.112;8.606;2023-03-01T04:44:11;12.30;;;8.85;;
10410;SDS011;5251;52.112;8.606;2023-03-01T04:46:38;13.32;;;9.40;;
10410;SDS011;5251;52.112;8.606;2023-03-01T04:49:03;12.75;;;9.90;;
10410;SDS011;5251;52.112;8.606;2023-03-01T04:51:30;12.82;;;9.75;;
10410;SDS011;5251;52.112;8.606;2023-03-01T04:53:57;12.27;;;8.98;;
10410;SDS011;5251;52.112;8.606;2023-03-01T04:56:23;11.40;;;8.70;;
10410;SDS011;5251;52.112;8.606;2023-03-01T04:58:48;11.70;;;9.50;;
10410;SDS011;5251;52.112;8.606;2023-03-01T05:01:18;11.60;;;8.52;;
10410;SDS011;5251;52.112;8.606;2023-03-01T05:03:45;10.90;;;8.85;;
10410;SDS011;5251;52.112;8.606;2023-03-01T05:06:12;11.90;;;9.10;;
10410;SDS011;5251;52.112;8.606;2023-03-01T05:08:39;12.35;;;9.48;;
10410;SDS011;5251;52.112;8.606;2023-03-01T05:11:05;11.18;;;8.80;;
10410;SDS011;5251;52.112;8.606;2023-03-01T05:13:34;10.80;;;8.68;;
10410;SDS011;5251;52.112;8.606;2023-03-01T05:16:01;14.35;;;9.43;;
10410;SDS011;5251;52.112;8.606;2023-03-01T05:18:29;10.73;;;8.90;;
10410;SDS011;5251;52.112;8.606;2023-03-01T05:21:00;12.00;;;8.73;;
10410;SDS011;5251;52.112;8.606;2023-03-01T05:23:37;14.02;;;8.90;;
10410;SDS011;5251;52.112;8.606;2023-03-01T05:26:04;13.30;;;8.80;;
10410;SDS011;5251;52.112;8.606;2023-03-01T05:28:31;14.05;;;9.40;;
10410;SDS011;5251;52.112;8.606;2023-03-01T05:30:57;14.35;;;10.20;;
10410;SDS011;5251;52.112;8.606;2023-03-01T05:33:24;11.20;;;9.10;;
10410;SDS011;5251;52.112;8.606;2023-03-01T05:35:50;12.63;;;9.05;;
10410;SDS011;5251;52.112;8.606;2023-03-01T05:38:19;12.90;;;9.30;;
10410;SDS011;5251;52.112;8.606;2023-03-01T05:40:46;11.85;;;9.20;;
10410;SDS011;5251;52.112;8.606;2023-03-01T05:43:14;12.57;;;9.57;;
10410;SDS011;5251;52.112;8.606;2023-03-01T05:45:41;10.70;;;9.25;;
10410;SDS011;5251;52.112;8.606;2023-03-01T05:48:07;13.50;;;9.50;;
10410;SDS011;5251;52.112;8.606;2023-03-01T05:50:35;13.18;;;9.30;;
10410;SDS011;5251;52.112;8.606;2023-03-01T05:53:03;14.68;;;9.80;;
10410;SDS011;5251;52.112;8.606;2023-03-01T05:55:32;20.08;;;12.85;;
10410;SDS011;5251;52.112;8.606;2023-03-01T05:57:59;13.68;;;11.07;;
10410;SDS011;5251;52.112;8.606;2023-03-01T06:00:26;16.45;;;10.65;;
10410;SDS011;5251;52.112;8.606;2023-03-01T06:02:53;15.13;;;10.57;;
10410;SDS011;5251;52.112;8.606;2023-03-01T06:05:19;14.27;;;10.38;;
10410;SDS011;5251;52.112;8.606;2023-03-01T06:07:46;13.90;;;9.90;;
10410;SDS011;5251;52.112;8.606;2023-03-01T06:10:12;12.23;;;9.07;;
10410;SDS011;5251;52.112;8.606;2023-03-01T06:12:38;12.98;;;9.60;;
10410;SDS011;5251;52.112;8.606;2023-03-01T06:15:06;13.32;;;9.07;;
10410;SDS011;5251;52.112;8.606;2023-03-01T06:17:35;12.05;;;9.18;;
10410;SDS011;5251;52.112;8.606;2023-03-01T06:20:06;11.32;;;8.77;;
10410;SDS011;5251;52.112;8.606;2023-03-01T06:22:36;10.95;;;9.02;;
10410;SDS011;5251;52.112;8.606;2023-03-01T06:25:02;11.75;;;9.32;;
10410;SDS011;5251;52.112;8.606;2023-03-01T06:27:28;11.57;;;8.77;;
10410;SDS011;5251;52.112;8.606;2023-03-01T06:29:54;12.88;;;9.13;;
10410;SDS011;5251;52.112;8.606;2023-03-01T06:32:19;11.95;;;9.38;;
10410;SDS011;5251;52.112;8.606;2023-03-01T06:34:45;13.00;;;8.65;;
10410;SDS011;5251;52.112;8.606;2023-03-01T06:37:10;12.40;;;9.30;;
10410;SDS011;5251;52.112;8.606;2023-03-01T06:39:36;12.85;;;9.40;;
10410;SDS011;5251;52.112;8.606;2023-03-01T06:42:02;13.27;;;10.15;;
10410;SDS011;5251;52.112;8.606;2023-03-01T06:44:27;12.00;;;9.27;;
10410;SDS011;5251;52.112;8.606;2023-03-01T06:46:53;13.35;;;9.82;;
10410;SDS011;5251;52.112;8.606;2023-03-01T06:49:19;11.77;;;9.27;;
10410;SDS011;5251;52.112;8.606;2023-03-01T06:51:45;12.25;;;9.35;;
10410;SDS011;5251;52.112;8.606;2023-03-01T06:54:11;10.73;;;8.85;;
10410;SDS011;5251;52.112;8.606;2023-03-01T06:56:37;12.35;;;9.40;;
10410;SDS011;5251;52.112;8.606;2023-03-01T06:59:03;12.18;;;9.65;;
10410;SDS011;5251;52.112;8.606;2023-03-01T07:01:29;13.57;;;9.38;;
10410;SDS011;5251;52.112;8.606;2023-03-01T07:03:55;11.65;;;9.82;;
10410;SDS011;5251;52.112;8.606;2023-03-01T07:06:21;12.57;;;9.57;;
10410;SDS011;5251;52.112;8.606;2023-03-01T07:08:48;12.77;;;9.77;;
10410;SDS011;5251;52.112;8.606;2023-03-01T07:11:13;13.02;;;9.93;;
10410;SDS011;5251;52.112;8.606;2023-03-01T07:13:39;13.20;;;9.98;;
10410;SDS011;5251;52.112;8.606;2023-03-01T07:16:05;15.27;;;10.88;;
10410;SDS011;5251;52.112;8.606;2023-03-01T07:18:31;14.68;;;10.05;;
10410;SDS011;5251;52.112;8.606;2023-03-01T07:20:57;14.85;;;10.57;;
10410;SDS011;5251;52.112;8.606;2023-03-01T07:23:22;12.57;;;10.50;;
10410;SDS011;5251;52.112;8.606;2023-03-01T07:25:52;13.13;;;10.40;;
10410;SDS011;5251;52.112;8.606;2023-03-01T07:28:18;15.57;;;10.60;;
10410;SDS011;5251;52.112;8.606;2023-03-01T07:30:44;15.00;;;10.93;;
10410;SDS011;5251;52.112;8.606;2023-03-01T07:33:09;14.77;;;11.00;;
10410;SDS011;5251;52.112;8.606;2023-03-01T07:35:35;13.35;;;10.55;;
10410;SDS011;5251;52.112;8.606;2023-03-01T07:38:00;13.20;;;10.52;;
10410;SDS011;5251;52.112;8.606;2023-03-01T07:40:26;12.98;;;9.95;;
10410;SDS011;5251;52.112;8.606;2023-03-01T07:42:55;13.30;;;10.70;;
10410;SDS011;5251;52.112;8.606;2023-03-01T07:45:21;14.77;;;10.63;;
10410;SDS011;5251;52.112;8.606;2023-03-01T07:47:47;14.38;;;10.90;;
10410;SDS011;5251;52.112;8.606;2023-03-01T07:50:12;13.02;;;10.32;;
10410;SDS011;5251;52.112;8.606;2023-03-01T07:52:38;16.58;;;11.20;;
10410;SDS011;5251;52.112;8.606;2023-03-01T07:55:04;14.15;;;10.82;;
10410;SDS011;5251;52.112;8.606;2023-03-01T07:57:30;13.30;;;11.13;;
10410;SDS011;5251;52.112;8.606;2023-03-01T07:59:56;15.68;;;11.70;;
10410;SDS011;5251;52.112;8.606;2023-03-01T08:02:22;16.10;;;11.40;;
10410;SDS011;5251;52.112;8.606;2023-03-01T08:04:47;13.75;;;10.52;;
10410;SDS011;5251;52.112;8.606;2023-03-01T08:07:13;15.15;;;10.85;;
10410;SDS011;5251;52.112;8.606;2023-03-01T08:09:39;16.02;;;10.90;;
10410;SDS011;5251;52.112;8.606;2023-03-01T08:12:05;15.88;;;11.57;;
10410;SDS011;5251;52.112;8.606;2023-03-01T08:14:31;14.93;;;11.60;;
10410;SDS011;5251;52.112;8.606;2023-03-01T08:16:57;16.38;;;11.32;;
10410;SDS011;5251;52.112;8.606;2023-03-01T08:19:23;17.63;;;12.23;;
10410;SDS011;5251;52.112;8.606;2023-03-01T08:21:48;15.73;;;12.32;;
10410;SDS011;5251;52.112;8.606;2023-03-01T08:24:14;17.33;;;12.70;;
10410;SDS011;5251;52.112;8.606;2023-03-01T08:26:40;16.30;;;12.07;;
10410;SDS011;5251;52.112;8.606;2023-03-01T08:29:05;14.82;;;11.63;;
10410;SDS011;5251;52.112;8.606;2023-03-01T08:31:33;15.32;;;11.50;;
10410;SDS011;5251;52.112;8.606;2023-03-01T08:34:05;16.70;;;11.77;;
10410;SDS011;5251;52.112;8.606;2023-03-01T08:36:36;16.45;;;12.13;;
10410;SDS011;5251;52.112;8.606;2023-03-01T08:39:04;17.75;;;12.32;;
10410;SDS011;5251;52.112;8.606;2023-03-01T08:41:31;18.27;;;11.23;;
10410;SDS011;5251;52.112;8.606;2023-03-01T08:43:56;14.93;;;11.05;;
10410;SDS011;5251;52.112;8.606;2023-03-01T08:46:30;13.88;;;10.63;;
10410;SDS011;5251;52.112;8.606;2023-03-01T08:48:57;15.75;;;9.95;;
10410;SDS011;5251;52.112;8.606;2023-03-01T08:51:23;13.75;;;9.80;;
10410;SDS011;5251;52.112;8.606;2023-03-01T08:53:50;13.93;;;8.93;;
10410;SDS011;5251;52.112;8.606;2023-03-01T08:56:16;13.95;;;8.20;;
10410;SDS011;5251;52.112;8.606;2023-03-01T08:58:44;10.48;;;7.65;;
10410;SDS011;5251;52.112;8.606;2023-03-01T09:01:11;10.38;;;7.80;;
10410;SDS011;5251;52.112;8.606;2023-03-01T09:03:39;10.93;;;7.35;;
10410;SDS011;5251;52.112;8.606;2023-03-01T09:06:06;10.52;;;7.75;;
10410;SDS011;5251;52.112;8.606;2023-03-01T09:08:39;11.05;;;8.07;;
10410;SDS011;5251;52.112;8.606;2023-03-01T09:11:07;10.98;;;7.50;;
10410;SDS011;5251;52.112;8.606;2023-03-01T09:13:34;11.07;;;7.60;;
10410;SDS011;5251;52.112;8.606;2023-03-01T09:16:00;11.00;;;7.57;;
10410;SDS011;5251;52.112;8.606;2023-03-01T09:18:27;11.30;;;7.85;;
10410;SDS011;5251;52.112;8.606;2023-03-01T09:20:53;11.07;;;7.22;;
10410;SDS011;5251;52.112;8.606;2023-03-01T09:23:25;9.25;;;7.20;;
10410;SDS011;5251;52.112;8.606;2023-03-01T09:25:52;9.35;;;7.10;;
10410;SDS011;5251;52.112;8.606;2023-03-01T09:28:17;9.43;;;7.10;;
10410;SDS011;5251;52.112;8.606;2023-03-01T09:30:43;11.93;;;7.35;;
10410;SDS011;5251;52.112;8.606;2023-03-01T09:33:08;9.85;;;6.88;;
10410;SDS011;5251;52.112;8.606;2023-03-01T09:35:39;11.10;;;7.25;;
10410;SDS011;5251;52.112;8.606;2023-03-01T09:38:10;10.02;;;7.18;;
10410;SDS011;5251;52.112;8.606;2023-03-01T09:40:41;10.35;;;6.80;;
10410;SDS011;5251;52.112;8.606;2023-03-01T09:43:13;10.90;;;6.90;;
10410;SDS011;5251;52.112;8.606;2023-03-01T09:45:50;10.48;;;6.65;;
10410;SDS011;5251;52.112;8.606;2023-03-01T09:48:21;9.05;;;6.72;;
10410;SDS011;5251;52.112;8.606;2023-03-01T09:50:50;11.48;;;7.15;;
10410;SDS011;5251;52.112;8.606;2023-03-01T09:53:21;11.38;;;6.95;;
10410;SDS011;5251;52.112;8.606;2023-03-01T09:56:02;8.55;;;6.22;;
10410;SDS011;5251;52.112;8.606;2023-03-01T10:03:59;8.10;;;5.30;;
10410;SDS011;5251;52.112;8.606;2023-03-01T10:06:26;8.50;;;5.40;;
10410;SDS011;5251;52.112;8.606;2023-03-01T10:08:56;7.70;;;5.00;;
10410;SDS011;5251;52.112;8.606;2023-03-01T10:11:26;6.78;;;4.93;;
10410;SDS011;5251;52.112;8.606;2023-03-01T10:14:00;7.28;;;5.40;;
10410;SDS011;5251;52.112;8.606;2023-03-01T10:19:12;7.43;;;4.85;;
10410;SDS011;5251;52.112;8.606;2023-03-01T10:21:46;7.20;;;4.78;;
10410;SDS011;5251;52.112;8.606;2023-03-01T10:24:15;6.35;;;4.60;;
10410;SDS011;5251;52.112;8.606;2023-03-01T10:26:54;7.35;;;4.93;;
10410;SDS011;5251;52.112;8.606;2023-03-01T10:29:44;6.32;;;4.63;;
10410;SDS011;5251;52.112;8.606;2023-03-01T10:32:14;7.47;;;4.43;;
10410;SDS011;5251;52.112;8.606;2023-03-01T10:34:40;7.07;;;4.60;;
10410;SDS011;5251;52.112;8.606;2023-03-01T10:39:37;9.40;;;4.70;;
10410;SDS011;5251;52.112;8.606;2023-03-01T10:42:28;7.25;;;4.90;;
10410;SDS011;5251;52.112;8.606;2023-03-01T10:44:55;7.20;;;4.63;;
10410;SDS011;5251;52.112;8.606;2023-03-01T10:49:53;7.25;;;4.95;;
10410;SDS011;5251;52.112;8.606;2023-03-01T10:52:31;7.07;;;4.78;;
10410;SDS011;5251;52.112;8.606;2023-03-01T10:55:03;7.60;;;4.90;;
10410;SDS011;5251;52.112;8.606;2023-03-01T10:57:48;6.32;;;4.65;;
10410;SDS011;5251;52.112;8.606;2023-03-01T11:00:19;7.38;;;4.93;;
10410;SDS011;5251;52.112;8.606;2023-03-01T11:02:49;6.28;;;4.68;;
10410;SDS011;5251;52.112;8.606;2023-03-01T11:05:22;6.18;;;4.70;;
10410;SDS011;5251;52.112;8.606;2023-03-01T11:07:56;6.90;;;4.78;;
10410;SDS011;5251;52.112;8.606;2023-03-01T11:10:27;7.65;;;4.90;;
10410;SDS011;5251;52.112;8.606;2023-03-01T11:12:53;6.60;;;4.22;;
10410;SDS011;5251;52.112;8.606;2023-03-01T11:15:31;5.72;;;4.60;;
10410;SDS011;5251;52.112;8.606;2023-03-01T11:17:57;6.90;;;4.57;;
10410;SDS011;5251;52.112;8.606;2023-03-01T11:20:28;6.60;;;4.32;;
10410;SDS011;5251;52.112;8.606;2023-03-01T11:23:03;7.20;;;4.68;;
10410;SDS011;5251;52.112;8.606;2023-03-01T11:25:35;7.82;;;5.07;;
10410;SDS011;5251;52.112;8.606;2023-03-01T11:28:05;7.20;;;4.70;;
10410;SDS011;5251;52.112;8.606;2023-03-01T11:35:34;7.28;;;4.60;;
10410;SDS011;5251;52.112;8.606;2023-03-01T11:40:42;6.55;;;4.45;;
10410;SDS011;5251;52.112;8.606;2023-03-01T11:54:04;5.38;;;3.80;;
10410;SDS011;5251;52.112;8.606;2023-03-01T11:56:51;5.25;;;3.83;;
10410;SDS011;5251;52.112;8.606;2023-03-01T12:23:31;6.40;;;4.85;;
10410;SDS011;5251;52.112;8.606;2023-03-01T12:26:34;8.13;;;5.05;;
10410;SDS011;5251;52.112;8.606;2023-03-01T12:29:13;7.22;;;5.22;;
10410;SDS011;5251;52.112;8.606;2023-03-01T12:45:32;8.57;;;5.55;;
10410;SDS011;5251;52.112;8.606;2023-03-01T12:50:53;7.53;;;5.30;;
10410;SDS011;5251;52.112;8.606;2023-03-01T12:53:27;7.57;;;5.40;;
10410;SDS011;5251;52.112;8.606;2023-03-01T12:56:08;8.02;;;5.05;;
10410;SDS011;5251;52.112;8.606;2023-03-01T13:04:23;6.82;;;5.07;;
10410;SDS011;5251;52.112;8.606;2023-03-01T13:12:48;9.02;;;5.65;;
10410;SDS011;5251;52.112;8.606;2023-03-01T13:17:49;7.70;;;5.55;;
10410;SDS011;5251;52.112;8.606;2023-03-01T13:20:17;6.75;;;5.15;;
10410;SDS011;5251;52.112;8.606;2023-03-01T13:22:48;7.78;;;5.20;;
10410;SDS011;5251;52.112;8.606;2023-03-01T13:25:27;7.28;;;4.75;;
10410;SDS011;5251;52.112;8.606;2023-03-01T13:27:53;8.80;;;5.35;;
10410;SDS011;5251;52.112;8.606;2023-03-01T13:30:57;7.65;;;5.65;;
10410;SDS011;5251;52.112;8.606;2023-03-01T13:36:01;6.50;;;4.78;;
10410;SDS011;5251;52.112;8.606;2023-03-01T13:41:13;9.40;;;4.88;;
10410;SDS011;5251;52.112;8.606;2023-03-01T13:43:41;7.55;;;4.97;;
10410;SDS011;5251;52.112;8.606;2023-03-01T13:46:18;6.55;;;4.88;;
10410;SDS011;5251;52.112;8.606;2023-03-01T13:48:50;6.43;;;4.85;;
10410;SDS011;5251;52.112;8.606;2023-03-01T13:51:21;6.80;;;5.03;;
10410;SDS011;5251;52.112;8.606;2023-03-01T13:53:52;7.35;;;5.20;;
10410;SDS011;5251;52.112;8.606;2023-03-01T13:56:33;6.72;;;4.90;;
10410;SDS011;5251;52.112;8.606;2023-03-01T13:59:03;7.35;;;4.97;;
10410;SDS011;5251;52.112;8.606;2023-03-01T14:01:32;7.85;;;4.82;;
10410;SDS011;5251;52.112;8.606;2023-03-01T14:04:00;6.57;;;5.00;;
10410;SDS011;5251;52.112;8.606;2023-03-01T14:06:43;5.90;;;4.80;;
10410;SDS011;5251;52.112;8.606;2023-03-01T14:09:18;6.82;;;4.65;;
10410;SDS011;5251;52.112;8.606;2023-03-01T14:20:17;5.82;;;4.43;;
10410;SDS011;5251;52.112;8.606;2023-03-01T14:22:47;7.05;;;5.05;;
10410;SDS011;5251;52.112;8.606;2023-03-01T14:28:16;6.22;;;4.45;;
10410;SDS011;5251;52.112;8.606;2023-03-01T14:30:45;6.57;;;4.68;;
10410;SDS011;5251;52.112;8.606;2023-03-01T14:33:21;6.63;;;4.53;;
10410;SDS011;5251;52.112;8.606;2023-03-01T14:36:08;7.60;;;5.15;;
10410;SDS011;5251;52.112;8.606;2023-03-01T14:38:43;6.82;;;5.05;;
10410;SDS011;5251;52.112;8.606;2023-03-01T14:41:14;7.43;;;4.60;;
10410;SDS011;5251;52.112;8.606;2023-03-01T14:46:24;5.75;;;4.30;;
10410;SDS011;5251;52.112;8.606;2023-03-01T14:48:56;6.50;;;4.20;;
10410;SDS011;5251;52.112;8.606;2023-03-01T14:51:26;7.95;;;4.18;;
10410;SDS011;5251;52.112;8.606;2023-03-01T14:53:52;5.63;;;4.05;;
10410;SDS011;5251;52.112;8.606;2023-03-01T14:56:18;5.53;;;3.38;;
10410;SDS011;5251;52.112;8.606;2023-03-01T14:58:44;6.00;;;4.22;;
10410;SDS011;5251;52.112;8.606;2023-03-01T15:01:14;4.82;;;3.70;;
10410;SDS011;5251;52.112;8.606;2023-03-01T15:03:45;5.35;;;3.95;;
10410;SDS011;5251;52.112;8.606;2023-03-01T15:06:19;5.40;;;3.70;;
10410;SDS011;5251;52.112;8.606;2023-03-01T15:08:48;5.10;;;3.47;;
10410;SDS011;5251;52.112;8.606;2023-03-01T15:13:50;6.47;;;3.65;;
10410;SDS011;5251;52.112;8.606;2023-03-01T15:16:17;4.78;;;3.50;;
10410;SDS011;5251;52.112;8.606;2023-03-01T15:18:47;5.93;;;3.58;;
10410;SDS011;5251;52.112;8.606;2023-03-01T15:21:23;25.80;;;17.77;;
10410;SDS011;5251;52.112;8.606;2023-03-01T15:24:05;46.88;;;29.55;;
10410;SDS011;5251;52.112;8.606;2023-03-01T15:26:43;14.80;;;8.70;;
10410;SDS011;5251;52.112;8.606;2023-03-01T15:29:32;10.88;;;6.72;;
10410;SDS011;5251;52.112;8.606;2023-03-01T15:32:05;19.88;;;11.45;;
10410;SDS011;5251;52.112;8.606;2023-03-01T15:34:51;43.05;;;24.63;;
10410;SDS011;5251;52.112;8.606;2023-03-01T15:43:36;12.73;;;8.88;;
10410;SDS011;5251;52.112;8.606;2023-03-01T15:46:03;6.55;;;4.88;;
10410;SDS011;5251;52.112;8.606;2023-03-01T15:48:29;6.07;;;3.33;;
10410;SDS011;5251;52.112;8.606;2023-03-01T15:50:55;4.22;;;3.20;;
10410;SDS011;5251;52.112;8.606;2023-03-01T15:53:23;5.25;;;3.40;;
10410;SDS011;5251;52.112;8.606;2023-03-01T15:55:49;6.30;;;3.17;;
10410;SDS011;5251;52.112;8.606;2023-03-01T15:58:22;5.13;;;3.20;;
10410;SDS011;5251;52.112;8.606;2023-03-01T16:00:50;5.30;;;3.80;;
10410;SDS011;5251;52.112;8.606;2023-03-01T16:03:21;4.13;;;3.05;;
10410;SDS011;5251;52.112;8.606;2023-03-01T16:05:47;4.53;;;3.10;;
10410;SDS011;5251;52.112;8.606;2023-03-01T16:08:15;4.00;;;2.80;;
10410;SDS011;5251;52.112;8.606;2023-03-01T16:10:42;4.97;;;3.08;;
10410;SDS011;5251;52.112;8.606;2023-03-01T16:13:09;4.32;;;3.05;;
10410;SDS011;5251;52.112;8.606;2023-03-01T16:15:35;3.53;;;3.13;;
10410;SDS011;5251;52.112;8.606;2023-03-01T16:18:01;4.45;;;2.85;;
10410;SDS011;5251;52.112;8.606;2023-03-01T16:20:28;4.07;;;3.15;;
10410;SDS011;5251;52.112;8.606;2023-03-01T16:22:54;4.22;;;3.20;;
10410;SDS011;5251;52.112;8.606;2023-03-01T16:25:25;4.30;;;2.80;;
10410;SDS011;5251;52.112;8.606;2023-03-01T16:27:51;3.85;;;2.80;;
10410;SDS011;5251;52.112;8.606;2023-03-01T16:30:20;3.92;;;3.05;;
10410;SDS011;5251;52.112;8.606;2023-03-01T16:32:47;4.13;;;3.10;;
10410;SDS011;5251;52.112;8.606;2023-03-01T16:35:15;5.38;;;3.20;;
10410;SDS011;5251;52.112;8.606;2023-03-01T16:37:43;5.40;;;3.38;;
10410;SDS011;5251;52.112;8.606;2023-03-01T16:40:19;4.32;;;2.95;;
10410;SDS011;5251;52.112;8.606;2023-03-01T16:42:50;3.20;;;2.80;;
10410;SDS011;5251;52.112;8.606;2023-03-01T16:45:16;4.88;;;2.83;;
10410;SDS011;5251;52.112;8.606;2023-03-01T16:47:42;6.35;;;3.10;;
10410;SDS011;5251;52.112;8.606;2023-03-01T16:50:08;4.43;;;3.20;;
10410;SDS011;5251;52.112;8.606;2023-03-01T16:52:35;5.30;;;3.20;;
10410;SDS011;5251;52.112;8.606;2023-03-01T16:55:02;3.38;;;2.80;;
10410;SDS011;5251;52.112;8.606;2023-03-01T16:57:29;4.13;;;2.80;;
10410;SDS011;5251;52.112;8.606;2023-03-01T16:59:55;3.47;;;2.78;;
10410;SDS011;5251;52.112;8.606;2023-03-01T17:02:21;3.78;;;2.85;;
10410;SDS011;5251;52.112;8.606;2023-03-01T17:04:53;6.03;;;3.70;;
10410;SDS011;5251;52.112;8.606;2023-03-01T17:07:20;4.60;;;3.30;;
10410;SDS011;5251;52.112;8.606;2023-03-01T17:09:46;9.35;;;5.50;;